sensor_id;sensor_type;location;lat;lon;timestamp;P1;durP1;ratioP1;P2;durP2;ratioP2
77864;SDS011;67061;48.524;9.040;2023-07-29T00:01:11;7.20;;;5.22;;
77864;SDS011;67061;48.524;9.040;2023-07-29T00:03:38;7.90;;;5.15;;
77864;SDS011;67061;48.524;9.040;2023-07-29T00:06:04;7.32;;;5.43;;
77864;SDS011;67061;48.524;9.040;2023-07-29T00:08:31;7.75;;;4.85;;
77864;SDS011;67061;48.524;9.040;2023-07-29T00:10:58;9.88;;;5.03;;
77864;SDS011;67061;48.524;9.040;2023-07-29T00:13:27;8.38;;;5.28;;
77864;SDS011;67061;48.524;9.040;2023-07-29T00:15:54;11.55;;;5.68;;
77864;SDS011;67061;48.524;9.040;2023-07-29T00:18:21;7.50;;;5.05;;
77864;SDS011;67061;48.524;9.040;2023-07-29T00:20:48;9.20;;;5.78;;
77864;SDS011;67061;48.524;9.040;2023-07-29T00:23:16;6.78;;;4.47;;
77864;SDS011;67061;48.524;9.040;2023-07-29T00:25:44;8.82;;;4.60;;
77864;SDS011;67061;48.524;9.040;2023-07-29T00:28:11;9.43;;;4.78;;
77864;SDS011;67061;48.524;9.040;2023-07-29T00:30:40;8.70;;;4.70;;
77864;SDS011;67061;48.524;9.040;2023-07-29T00:33:07;8.38;;;4.72;;
77864;SDS011;67061;48.524;9.040;2023-07-29T00:35:34;8.07;;;5.35;;
77864;SDS011;67061;48.524;9.040;2023-07-29T00:38:01;9.50;;;4.95;;
77864;SDS011;67061;48.524;9.040;2023-07-29T00:40:28;8.55;;;5.38;;
77864;SDS011;67061;48.524;9.040;2023-07-29T00:42:55;6.47;;;5.20;;
77864;SDS011;67061;48.524;9.040;2023-07-29T00:45:22;7.47;;;4.55;;
77864;SDS011;67061;48.524;9.040;2023-07-29T00:50:19;7.88;;;3.72;;
77864;SDS011;67061;48.524;9.040;2023-07-29T00:52:48;5.80;;;4.32;;
77864;SDS011;67061;48.524;9.040;2023-07-29T00:55:15;7.15;;;4.30;;
77864;SDS011;67061;48.524;9.040;2023-07-29T00:57:43;7.00;;;3.83;;
77864;SDS011;67061;48.524;9.040;2023-07-29T01:00:13;7.05;;;4.05;;
77864;SDS011;67061;48.524;9.040;2023-07-29T01:02:40;7.35;;;3.40;;
77864;SDS011;67061;48.524;9.040;2023-07-29T01:05:10;4.93;;;2.97;;
77864;SDS011;67061;48.524;9.040;2023-07-29T01:07:39;6.00;;;3.33;;
77864;SDS011;67061;48.524;9.040;2023-07-29T01:10:14;5.82;;;3.03;;
77864;SDS011;67061;48.524;9.040;2023-07-29T01:12:49;4.05;;;3.00;;
77864;SDS011;67061;48.524;9.040;2023-07-29T01:15:21;6.32;;;2.78;;
77864;SDS011;67061;48.524;9.040;2023-07-29T01:17:54;7.13;;;2.88;;
77864;SDS011;67061;48.524;9.040;2023-07-29T01:20:26;4.82;;;2.28;;
77864;SDS011;67061;48.524;9.040;2023-07-29T01:22:54;3.90;;;2.90;;
77864;SDS011;67061;48.524;9.040;2023-07-29T01:25:22;5.63;;;2.28;;
77864;SDS011;67061;48.524;9.040;2023-07-29T01:27:49;4.82;;;2.20;;
77864;SDS011;67061;48.524;9.040;2023-07-29T01:30:17;4.53;;;2.47;;
77864;SDS011;67061;48.524;9.040;2023-07-29T01:32:46;4.47;;;1.70;;
77864;SDS011;67061;48.524;9.040;2023-07-29T01:35:19;3.25;;;1.75;;
77864;SDS011;67061;48.524;9.040;2023-07-29T01:37:51;5.20;;;1.83;;
77864;SDS011;67061;48.524;9.040;2023-07-29T01:40:23;3.42;;;1.60;;
77864;SDS011;67061;48.524;9.040;2023-07-29T01:42:53;4.22;;;1.60;;
77864;SDS011;67061;48.524;9.040;2023-07-29T01:45:22;4.07;;;2.40;;
77864;SDS011;67061;48.524;9.040;2023-07-29T01:47:50;3.85;;;2.17;;
77864;SDS011;67061;48.524;9.040;2023-07-29T01:50:17;5.63;;;2.75;;
77864;SDS011;67061;48.524;9.040;2023-07-29T01:52:44;3.60;;;2.53;;
77864;SDS011;67061;48.524;9.040;2023-07-29T01:55:11;3.88;;;2.20;;
77864;SDS011;67061;48.524;9.040;2023-07-29T01:57:39;6.10;;;2.30;;
77864;SDS011;67061;48.524;9.040;2023-07-29T02:00:07;5.10;;;2.35;;
77864;SDS011;67061;48.524;9.040;2023-07-29T02:02:34;4.45;;;2.55;;
77864;SDS011;67061;48.524;9.040;2023-07-29T02:05:01;4.82;;;2.60;;
77864;SDS011;67061;48.524;9.040;2023-07-29T02:07:28;4.00;;;2.15;;
77864;SDS011;67061;48.524;9.040;2023-07-29T02:09:55;4.38;;;2.90;;
77864;SDS011;67061;48.524;9.040;2023-07-29T02:12:22;6.53;;;2.47;;
77864;SDS011;67061;48.524;9.040;2023-07-29T02:14:50;4.68;;;2.40;;
77864;SDS011;67061;48.524;9.040;2023-07-29T02:17:17;5.65;;;2.65;;
77864;SDS011;67061;48.524;9.040;2023-07-29T02:19:44;4.03;;;2.35;;
77864;SDS011;67061;48.524;9.040;2023-07-29T02:22:12;6.10;;;2.88;;
77864;SDS011;67061;48.524;9.040;2023-07-29T02:27:07;6.22;;;3.33;;
77864;SDS011;67061;48.524;9.040;2023-07-29T02:29:33;11.35;;;3.10;;
77864;SDS011;67061;48.524;9.040;2023-07-29T02:32:02;7.88;;;3.03;;
77864;SDS011;67061;48.524;9.040;2023-07-29T02:34:29;33.80;;;3.58;;
77864;SDS011;67061;48.524;9.040;2023-07-29T02:36:56;25.63;;;3.92;;
77864;SDS011;67061;48.524;9.040;2023-07-29T02:39:23;51.55;;;3.88;;
77864;SDS011;67061;48.524;9.040;2023-07-29T02:41:50;37.85;;;3.13;;
77864;SDS011;67061;48.524;9.040;2023-07-29T02:44:17;9.30;;;3.08;;
77864;SDS011;67061;48.524;9.040;2023-07-29T02:46:44;12.10;;;3.22;;
77864;SDS011;67061;48.524;9.040;2023-07-29T02:49:12;8.50;;;2.80;;
77864;SDS011;67061;48.524;9.040;2023-07-29T02:51:40;19.00;;;3.13;;
77864;SDS011;67061;48.524;9.040;2023-07-29T02:54:07;14.77;;;3.63;;
77864;SDS011;67061;48.524;9.040;2023-07-29T02:56:34;5.65;;;2.95;;
77864;SDS011;67061;48.524;9.040;2023-07-29T02:59:01;4.57;;;2.95;;
77864;SDS011;67061;48.524;9.040;2023-07-29T03:01:27;7.03;;;3.20;;
77864;SDS011;67061;48.524;9.040;2023-07-29T03:03:54;17.75;;;3.80;;
77864;SDS011;67061;48.524;9.040;2023-07-29T03:06:23;16.05;;;3.65;;
77864;SDS011;67061;48.524;9.040;2023-07-29T03:08:50;10.10;;;3.53;;
77864;SDS011;67061;48.524;9.040;2023-07-29T03:11:17;17.33;;;4.20;;
77864;SDS011;67061;48.524;9.040;2023-07-29T03:13:44;18.17;;;4.47;;
77864;SDS011;67061;48.524;9.040;2023-07-29T03:16:13;20.40;;;3.72;;
77864;SDS011;67061;48.524;9.040;2023-07-29T03:18:41;12.25;;;4.38;;
77864;SDS011;67061;48.524;9.040;2023-07-29T03:21:09;12.57;;;4.00;;
77864;SDS011;67061;48.524;9.040;2023-07-29T03:23:38;11.73;;;3.40;;
77864;SDS011;67061;48.524;9.040;2023-07-29T03:26:05;20.98;;;3.70;;
77864;SDS011;67061;48.524;9.040;2023-07-29T03:28:35;14.55;;;3.40;;
77864;SDS011;67061;48.524;9.040;2023-07-29T03:31:03;8.48;;;3.03;;
77864;SDS011;67061;48.524;9.040;2023-07-29T03:33:30;6.55;;;3.25;;
77864;SDS011;67061;48.524;9.040;2023-07-29T03:35:57;5.72;;;3.03;;
77864;SDS011;67061;48.524;9.040;2023-07-29T03:38:24;8.02;;;2.83;;
77864;SDS011;67061;48.524;9.040;2023-07-29T03:40:52;5.63;;;3.00;;
77864;SDS011;67061;48.524;9.040;2023-07-29T03:43:19;7.47;;;3.70;;
77864;SDS011;67061;48.524;9.040;2023-07-29T03:45:46;7.95;;;3.33;;
77864;SDS011;67061;48.524;9.040;2023-07-29T03:48:13;6.22;;;3.40;;
77864;SDS011;67061;48.524;9.040;2023-07-29T03:50:40;5.43;;;2.92;;
77864;SDS011;67061;48.524;9.040;2023-07-29T03:53:07;4.70;;;2.58;;
77864;SDS011;67061;48.524;9.040;2023-07-29T03:55:35;6.53;;;3.03;;
77864;SDS011;67061;48.524;9.040;2023-07-29T03:58:03;6.15;;;2.92;;
77864;SDS011;67061;48.524;9.040;2023-07-29T04:00:30;10.02;;;3.83;;
77864;SDS011;67061;48.524;9.040;2023-07-29T04:02:57;6.22;;;3.30;;
77864;SDS011;67061;48.524;9.040;2023-07-29T04:05:24;8.15;;;3.58;;
77864;SDS011;67061;48.524;9.040;2023-07-29T04:07:51;6.57;;;3.10;;
77864;SDS011;67061;48.524;9.040;2023-07-29T04:10:18;7.25;;;3.50;;
77864;SDS011;67061;48.524;9.040;2023-07-29T04:12:46;7.38;;;3.88;;
77864;SDS011;67061;48.524;9.040;2023-07-29T04:15:14;10.75;;;3.05;;
77864;SDS011;67061;48.524;9.040;2023-07-29T04:17:41;8.55;;;3.60;;
77864;SDS011;67061;48.524;9.040;2023-07-29T04:20:09;6.05;;;3.28;;
77864;SDS011;67061;48.524;9.040;2023-07-29T04:22:36;8.88;;;2.97;;
77864;SDS011;67061;48.524;9.040;2023-07-29T04:25:04;6.05;;;3.45;;
77864;SDS011;67061;48.524;9.040;2023-07-29T04:27:32;9.02;;;3.17;;
77864;SDS011;67061;48.524;9.040;2023-07-29T04:29:58;8.73;;;3.33;;
77864;SDS011;67061;48.524;9.040;2023-07-29T04:32:27;4.60;;;2.42;;
77864;SDS011;67061;48.524;9.040;2023-07-29T04:34:53;6.68;;;2.72;;
77864;SDS011;67061;48.524;9.040;2023-07-29T04:37:20;8.27;;;3.08;;
77864;SDS011;67061;48.524;9.040;2023-07-29T04:39:47;6.97;;;3.08;;
77864;SDS011;67061;48.524;9.040;2023-07-29T04:42:14;4.40;;;2.70;;
77864;SDS011;67061;48.524;9.040;2023-07-29T04:44:41;5.53;;;2.80;;
77864;SDS011;67061;48.524;9.040;2023-07-29T04:47:08;4.07;;;2.35;;
77864;SDS011;67061;48.524;9.040;2023-07-29T04:49:37;3.58;;;1.90;;
77864;SDS011;67061;48.524;9.040;2023-07-29T04:52:04;4.60;;;2.40;;
77864;SDS011;67061;48.524;9.040;2023-07-29T04:54:31;4.85;;;1.98;;
77864;SDS011;67061;48.524;9.040;2023-07-29T04:56:58;3.67;;;1.67;;
77864;SDS011;67061;48.524;9.040;2023-07-29T04:59:25;5.35;;;2.60;;
77864;SDS011;67061;48.524;9.040;2023-07-29T05:01:52;8.75;;;2.53;;
77864;SDS011;67061;48.524;9.040;2023-07-29T05:04:19;6.50;;;2.45;;
77864;SDS011;67061;48.524;9.040;2023-07-29T05:06:47;6.03;;;3.15;;
77864;SDS011;67061;48.524;9.040;2023-07-29T05:09:16;6.57;;;3.33;;
77864;SDS011;67061;48.524;9.040;2023-07-29T05:11:45;7.25;;;2.50;;
77864;SDS011;67061;48.524;9.040;2023-07-29T05:14:12;5.80;;;2.90;;
77864;SDS011;67061;48.524;9.040;2023-07-29T05:16:39;6.65;;;3.25;;
77864;SDS011;67061;48.524;9.040;2023-07-29T05:19:06;4.45;;;2.75;;
77864;SDS011;67061;48.524;9.040;2023-07-29T05:21:33;5.80;;;2.60;;
77864;SDS011;67061;48.524;9.040;2023-07-29T05:24:02;5.25;;;2.53;;
77864;SDS011;67061;48.524;9.040;2023-07-29T05:26:29;6.25;;;3.28;;
77864;SDS011;67061;48.524;9.040;2023-07-29T05:28:56;6.75;;;3.40;;
77864;SDS011;67061;48.524;9.040;2023-07-29T05:31:23;5.43;;;3.03;;
77864;SDS011;67061;48.524;9.040;2023-07-29T05:33:49;5.75;;;3.28;;
77864;SDS011;67061;48.524;9.040;2023-07-29T05:36:16;7.50;;;3.03;;
77864;SDS011;67061;48.524;9.040;2023-07-29T05:38:43;6.43;;;2.67;;
77864;SDS011;67061;48.524;9.040;2023-07-29T05:41:11;7.00;;;2.83;;
77864;SDS011;67061;48.524;9.040;2023-07-29T05:43:38;5.30;;;2.58;;
77864;SDS011;67061;48.524;9.040;2023-07-29T05:46:05;5.63;;;2.80;;
77864;SDS011;67061;48.524;9.040;2023-07-29T05:48:32;4.72;;;2.95;;
77864;SDS011;67061;48.524;9.040;2023-07-29T05:50:59;6.88;;;2.97;;
77864;SDS011;67061;48.524;9.040;2023-07-29T05:53:26;5.72;;;3.30;;
77864;SDS011;67061;48.524;9.040;2023-07-29T05:55:52;6.57;;;3.13;;
77864;SDS011;67061;48.524;9.040;2023-07-29T05:58:21;7.22;;;2.72;;
77864;SDS011;67061;48.524;9.040;2023-07-29T06:00:47;6.22;;;2.92;;
77864;SDS011;67061;48.524;9.040;2023-07-29T06:03:14;5.15;;;3.35;;
77864;SDS011;67061;48.524;9.040;2023-07-29T06:05:41;4.82;;;3.13;;
77864;SDS011;67061;48.524;9.040;2023-07-29T06:08:08;5.05;;;2.78;;
77864;SDS011;67061;48.524;9.040;2023-07-29T06:10:35;4.55;;;2.90;;
77864;SDS011;67061;48.524;9.040;2023-07-29T06:13:02;3.92;;;2.80;;
77864;SDS011;67061;48.524;9.040;2023-07-29T06:15:30;5.10;;;2.92;;
77864;SDS011;67061;48.524;9.040;2023-07-29T06:17:57;4.82;;;2.45;;
77864;SDS011;67061;48.524;9.040;2023-07-29T06:20:24;4.05;;;2.55;;
77864;SDS011;67061;48.524;9.040;2023-07-29T06:22:51;5.68;;;2.47;;
77864;SDS011;67061;48.524;9.040;2023-07-29T06:25:18;4.07;;;2.70;;
77864;SDS011;67061;48.524;9.040;2023-07-29T06:27:45;5.10;;;2.80;;
77864;SDS011;67061;48.524;9.040;2023-07-29T06:30:12;5.15;;;2.30;;
77864;SDS011;67061;48.524;9.040;2023-07-29T06:32:40;4.10;;;2.60;;
77864;SDS011;67061;48.524;9.040;2023-07-29T06:35:07;4.85;;;2.05;;
77864;SDS011;67061;48.524;9.040;2023-07-29T06:37:34;5.90;;;2.50;;
77864;SDS011;67061;48.524;9.040;2023-07-29T06:40:01;4.15;;;2.42;;
77864;SDS011;67061;48.524;9.040;2023-07-29T06:42:28;5.47;;;2.30;;
77864;SDS011;67061;48.524;9.040;2023-07-29T06:44:55;3.97;;;2.05;;
77864;SDS011;67061;48.524;9.040;2023-07-29T06:47:22;6.57;;;2.13;;
77864;SDS011;67061;48.524;9.040;2023-07-29T06:49:50;2.92;;;1.92;;
77864;SDS011;67061;48.524;9.040;2023-07-29T06:52:17;8.88;;;2.58;;
77864;SDS011;67061;48.524;9.040;2023-07-29T06:54:44;6.30;;;2.05;;
77864;SDS011;67061;48.524;9.040;2023-07-29T06:57:11;6.30;;;2.10;;
77864;SDS011;67061;48.524;9.040;2023-07-29T06:59:37;4.72;;;2.30;;
77864;SDS011;67061;48.524;9.040;2023-07-29T07:02:05;5.65;;;1.80;;
77864;SDS011;67061;48.524;9.040;2023-07-29T07:04:32;3.90;;;1.88;;
77864;SDS011;67061;48.524;9.040;2023-07-29T07:07:01;4.25;;;2.05;;
77864;SDS011;67061;48.524;9.040;2023-07-29T07:09:28;4.18;;;2.30;;
77864;SDS011;67061;48.524;9.040;2023-07-29T07:11:54;3.92;;;1.92;;
77864;SDS011;67061;48.524;9.040;2023-07-29T07:14:21;5.47;;;2.63;;
77864;SDS011;67061;48.524;9.040;2023-07-29T07:16:48;5.78;;;2.58;;
77864;SDS011;67061;48.524;9.040;2023-07-29T07:19:15;5.30;;;2.28;;
77864;SDS011;67061;48.524;9.040;2023-07-29T07:21:42;4.93;;;2.50;;
77864;SDS011;67061;48.524;9.040;2023-07-29T07:24:10;4.53;;;2.47;;
77864;SDS011;67061;48.524;9.040;2023-07-29T07:26:37;3.92;;;2.33;;
77864;SDS011;67061;48.524;9.040;2023-07-29T07:29:05;4.30;;;2.13;;
77864;SDS011;67061;48.524;9.040;2023-07-29T07:31:33;4.05;;;2.50;;
77864;SDS011;67061;48.524;9.040;2023-07-29T07:34:00;4.25;;;2.83;;
77864;SDS011;67061;48.524;9.040;2023-07-29T07:36:28;4.65;;;2.75;;
77864;SDS011;67061;48.524;9.040;2023-07-29T07:38:55;6.72;;;2.80;;
77864;SDS011;67061;48.524;9.040;2023-07-29T07:41:24;6.70;;;2.38;;
77864;SDS011;67061;48.524;9.040;2023-07-29T07:43:51;5.25;;;3.10;;
77864;SDS011;67061;48.524;9.040;2023-07-29T07:46:18;5.10;;;2.95;;
77864;SDS011;67061;48.524;9.040;2023-07-29T07:48:45;10.05;;;3.03;;
77864;SDS011;67061;48.524;9.040;2023-07-29T07:51:12;5.38;;;2.70;;
77864;SDS011;67061;48.524;9.040;2023-07-29T07:53:39;3.95;;;2.40;;
77864;SDS011;67061;48.524;9.040;2023-07-29T07:56:06;5.38;;;2.70;;
77864;SDS011;67061;48.524;9.040;2023-07-29T07:58:34;4.97;;;2.47;;
77864;SDS011;67061;48.524;9.040;2023-07-29T08:01:02;4.68;;;2.30;;
77864;SDS011;67061;48.524;9.040;2023-07-29T08:03:29;3.83;;;2.40;;
77864;SDS011;67061;48.524;9.040;2023-07-29T08:05:56;4.07;;;2.40;;
77864;SDS011;67061;48.524;9.040;2023-07-29T08:08:23;6.03;;;3.28;;
77864;SDS011;67061;48.524;9.040;2023-07-29T08:10:52;4.28;;;2.40;;
77864;SDS011;67061;48.524;9.040;2023-07-29T08:13:19;4.55;;;2.30;;
77864;SDS011;67061;48.524;9.040;2023-07-29T08:15:47;3.63;;;2.17;;
77864;SDS011;67061;48.524;9.040;2023-07-29T08:18:14;4.95;;;2.55;;
77864;SDS011;67061;48.524;9.040;2023-07-29T08:20:41;4.35;;;2.65;;
77864;SDS011;67061;48.524;9.040;2023-07-29T08:23:18;3.55;;;2.75;;
77864;SDS011;67061;48.524;9.040;2023-07-29T08:25:49;3.47;;;2.40;;
77864;SDS011;67061;48.524;9.040;2023-07-29T08:28:17;4.03;;;2.78;;
77864;SDS011;67061;48.524;9.040;2023-07-29T08:30:44;5.30;;;2.92;;
77864;SDS011;67061;48.524;9.040;2023-07-29T08:33:12;6.00;;;2.97;;
77864;SDS011;67061;48.524;9.040;2023-07-29T08:35:39;5.40;;;3.05;;
77864;SDS011;67061;48.524;9.040;2023-07-29T08:38:06;5.70;;;2.60;;
77864;SDS011;67061;48.524;9.040;2023-07-29T08:40:34;5.45;;;2.75;;
77864;SDS011;67061;48.524;9.040;2023-07-29T08:43:04;4.50;;;3.08;;
77864;SDS011;67061;48.524;9.040;2023-07-29T08:45:32;4.10;;;2.72;;
77864;SDS011;67061;48.524;9.040;2023-07-29T08:48:02;3.40;;;2.45;;
77864;SDS011;67061;48.524;9.040;2023-07-29T08:50:33;4.18;;;2.40;;
77864;SDS011;67061;48.524;9.040;2023-07-29T08:53:03;3.83;;;2.10;;
77864;SDS011;67061;48.524;9.040;2023-07-29T08:55:31;4.05;;;1.40;;
77864;SDS011;67061;48.524;9.040;2023-07-29T08:57:59;4.05;;;1.88;;
77864;SDS011;67061;48.524;9.040;2023-07-29T09:00:27;2.58;;;1.52;;
77864;SDS011;67061;48.524;9.040;2023-07-29T09:02:54;2.60;;;1.50;;
77864;SDS011;67061;48.524;9.040;2023-07-29T09:05:23;2.53;;;1.33;;
77864;SDS011;67061;48.524;9.040;2023-07-29T09:07:51;2.47;;;1.30;;
77864;SDS011;67061;48.524;9.040;2023-07-29T09:10:21;2.85;;;1.48;;
77864;SDS011;67061;48.524;9.040;2023-07-29T09:12:49;2.70;;;1.50;;
77864;SDS011;67061;48.524;9.040;2023-07-29T09:15:25;2.67;;;1.42;;
77864;SDS011;67061;48.524;9.040;2023-07-29T09:17:54;2.75;;;1.60;;
77864;SDS011;67061;48.524;9.040;2023-07-29T09:22:55;3.00;;;1.48;;
77864;SDS011;67061;48.524;9.040;2023-07-29T09:25:24;2.92;;;1.42;;
77864;SDS011;67061;48.524;9.040;2023-07-29T09:27:52;4.75;;;2.63;;
77864;SDS011;67061;48.524;9.040;2023-07-29T09:30:24;3.60;;;2.20;;
77864;SDS011;67061;48.524;9.040;2023-07-29T09:32:53;3.88;;;1.65;;
77864;SDS011;67061;48.524;9.040;2023-07-29T09:35:21;4.40;;;2.00;;
77864;SDS011;67061;48.524;9.040;2023-07-29T09:37:49;3.03;;;1.83;;
77864;SDS011;67061;48.524;9.040;2023-07-29T09:40:18;2.58;;;1.58;;
77864;SDS011;67061;48.524;9.040;2023-07-29T09:42:48;3.55;;;1.55;;
77864;SDS011;67061;48.524;9.040;2023-07-29T09:45:19;2.75;;;1.70;;
77864;SDS011;67061;48.524;9.040;2023-07-29T09:47:47;2.67;;;1.40;;
77864;SDS011;67061;48.524;9.040;2023-07-29T09:50:15;2.97;;;1.30;;
77864;SDS011;67061;48.524;9.040;2023-07-29T09:52:42;2.45;;;1.10;;
77864;SDS011;67061;48.524;9.040;2023-07-29T09:55:09;2.53;;;1.33;;
77864;SDS011;67061;48.524;9.040;2023-07-29T09:57:39;3.85;;;1.50;;
77864;SDS011;67061;48.524;9.040;2023-07-29T10:00:06;2.40;;;1.33;;
77864;SDS011;67061;48.524;9.040;2023-07-29T10:02:37;3.17;;;1.42;;
77864;SDS011;67061;48.524;9.040;2023-07-29T10:05:05;2.97;;;1.50;;
77864;SDS011;67061;48.524;9.040;2023-07-29T10:07:33;3.60;;;1.48;;
77864;SDS011;67061;48.524;9.040;2023-07-29T10:10:02;3.15;;;1.42;;
77864;SDS011;67061;48.524;9.040;2023-07-29T10:12:32;3.42;;;1.48;;
77864;SDS011;67061;48.524;9.040;2023-07-29T10:15:02;2.70;;;1.60;;
77864;SDS011;67061;48.524;9.040;2023-07-29T10:17:31;2.50;;;1.48;;
77864;SDS011;67061;48.524;9.040;2023-07-29T10:20:01;3.20;;;1.23;;
77864;SDS011;67061;48.524;9.040;2023-07-29T10:25:03;2.47;;;1.48;;
77864;SDS011;67061;48.524;9.040;2023-07-29T10:27:33;5.47;;;1.30;;
77864;SDS011;67061;48.524;9.040;2023-07-29T10:30:09;4.03;;;1.70;;
77864;SDS011;67061;48.524;9.040;2023-07-29T10:32:38;3.05;;;1.48;;
77864;SDS011;67061;48.524;9.040;2023-07-29T10:35:07;2.88;;;1.45;;
77864;SDS011;67061;48.524;9.040;2023-07-29T10:37:34;2.50;;;1.23;;
77864;SDS011;67061;48.524;9.040;2023-07-29T10:40:05;4.03;;;1.58;;
77864;SDS011;67061;48.524;9.040;2023-07-29T10:42:33;5.50;;;2.50;;
77864;SDS011;67061;48.524;9.040;2023-07-29T10:45:00;5.30;;;1.80;;
77864;SDS011;67061;48.524;9.040;2023-07-29T10:47:46;2.78;;;1.50;;
77864;SDS011;67061;48.524;9.040;2023-07-29T10:50:17;2.88;;;1.60;;
77864;SDS011;67061;48.524;9.040;2023-07-29T10:52:48;6.70;;;1.70;;
77864;SDS011;67061;48.524;9.040;2023-07-29T10:55:23;2.22;;;1.30;;
77864;SDS011;67061;48.524;9.040;2023-07-29T10:57:52;2.60;;;1.45;;
77864;SDS011;67061;48.524;9.040;2023-07-29T11:00:31;3.20;;;1.40;;
77864;SDS011;67061;48.524;9.040;2023-07-29T11:02:59;4.82;;;1.60;;
77864;SDS011;67061;48.524;9.040;2023-07-29T11:05:29;8.00;;;1.40;;
77864;SDS011;67061;48.524;9.040;2023-07-29T11:08:15;2.40;;;1.20;;
77864;SDS011;67061;48.524;9.040;2023-07-29T11:11:02;2.97;;;1.52;;
77864;SDS011;67061;48.524;9.040;2023-07-29T11:13:31;2.70;;;1.20;;
77864;SDS011;67061;48.524;9.040;2023-07-29T11:16:00;3.35;;;1.05;;
77864;SDS011;67061;48.524;9.040;2023-07-29T11:18:29;2.90;;;1.33;;
77864;SDS011;67061;48.524;9.040;2023-07-29T11:20:56;3.50;;;1.40;;
77864;SDS011;67061;48.524;9.040;2023-07-29T11:23:27;2.30;;;1.20;;
77864;SDS011;67061;48.524;9.040;2023-07-29T11:25:55;3.15;;;1.23;;
77864;SDS011;67061;48.524;9.040;2023-07-29T11:28:23;2.33;;;0.98;;
77864;SDS011;67061;48.524;9.040;2023-07-29T11:30:50;2.85;;;1.42;;
77864;SDS011;67061;48.524;9.040;2023-07-29T11:33:19;3.05;;;1.63;;
77864;SDS011;67061;48.524;9.040;2023-07-29T11:35:47;2.55;;;1.45;;
77864;SDS011;67061;48.524;9.040;2023-07-29T11:38:17;3.00;;;1.42;;
77864;SDS011;67061;48.524;9.040;2023-07-29T11:40:53;2.30;;;1.40;;
77864;SDS011;67061;48.524;9.040;2023-07-29T11:43:21;3.85;;;1.48;;
77864;SDS011;67061;48.524;9.040;2023-07-29T11:45:48;2.70;;;1.13;;
77864;SDS011;67061;48.524;9.040;2023-07-29T11:48:15;2.20;;;1.10;;
77864;SDS011;67061;48.524;9.040;2023-07-29T11:50:43;2.35;;;0.73;;
77864;SDS011;67061;48.524;9.040;2023-07-29T11:53:12;2.97;;;0.95;;
77864;SDS011;67061;48.524;9.040;2023-07-29T11:55:39;2.30;;;1.05;;
77864;SDS011;67061;48.524;9.040;2023-07-29T11:58:05;3.20;;;1.50;;
77864;SDS011;67061;48.524;9.040;2023-07-29T12:00:33;2.33;;;0.98;;
77864;SDS011;67061;48.524;9.040;2023-07-29T12:03:00;2.42;;;0.93;;
77864;SDS011;67061;48.524;9.040;2023-07-29T12:05:27;2.47;;;1.00;;
77864;SDS011;67061;48.524;9.040;2023-07-29T12:07:56;2.63;;;0.93;;
77864;SDS011;67061;48.524;9.040;2023-07-29T12:10:24;2.40;;;1.15;;
77864;SDS011;67061;48.524;9.040;2023-07-29T12:12:51;2.10;;;1.38;;
77864;SDS011;67061;48.524;9.040;2023-07-29T12:15:25;1.92;;;0.93;;
77864;SDS011;67061;48.524;9.040;2023-07-29T12:17:53;2.15;;;1.23;;
77864;SDS011;67061;48.524;9.040;2023-07-29T12:20:22;2.00;;;0.90;;
77864;SDS011;67061;48.524;9.040;2023-07-29T12:22:52;3.40;;;1.00;;
77864;SDS011;67061;48.524;9.040;2023-07-29T12:25:21;2.63;;;1.17;;
77864;SDS011;67061;48.524;9.040;2023-07-29T12:27:49;2.50;;;1.20;;
77864;SDS011;67061;48.524;9.040;2023-07-29T12:30:16;2.17;;;1.15;;
77864;SDS011;67061;48.524;9.040;2023-07-29T12:32:46;2.60;;;1.10;;
77864;SDS011;67061;48.524;9.040;2023-07-29T12:35:13;2.20;;;1.38;;
77864;SDS011;67061;48.524;9.040;2023-07-29T12:37:40;2.28;;;1.20;;
77864;SDS011;67061;48.524;9.040;2023-07-29T12:40:08;2.47;;;1.20;;
77864;SDS011;67061;48.524;9.040;2023-07-29T12:42:49;2.10;;;1.08;;
77864;SDS011;67061;48.524;9.040;2023-07-29T12:45:16;3.50;;;1.25;;
77864;SDS011;67061;48.524;9.040;2023-07-29T12:47:43;2.55;;;1.23;;
77864;SDS011;67061;48.524;9.040;2023-07-29T12:50:10;4.45;;;1.40;;
77864;SDS011;67061;48.524;9.040;2023-07-29T12:52:37;2.65;;;1.20;;
77864;SDS011;67061;48.524;9.040;2023-07-29T12:55:05;2.10;;;1.25;;
77864;SDS011;67061;48.524;9.040;2023-07-29T12:57:39;2.58;;;1.25;;
77864;SDS011;67061;48.524;9.040;2023-07-29T13:00:10;2.63;;;1.17;;
77864;SDS011;67061;48.524;9.040;2023-07-29T13:02:37;2.08;;;1.27;;
77864;SDS011;67061;48.524;9.040;2023-07-29T13:05:05;2.30;;;1.30;;
77864;SDS011;67061;48.524;9.040;2023-07-29T13:07:33;2.10;;;1.30;;
77864;SDS011;67061;48.524;9.040;2023-07-29T13:10:00;2.05;;;1.10;;
77864;SDS011;67061;48.524;9.040;2023-07-29T13:12:28;2.63;;;1.00;;
77864;SDS011;67061;48.524;9.040;2023-07-29T13:14:56;2.30;;;1.30;;
77864;SDS011;67061;48.524;9.040;2023-07-29T13:19:51;3.15;;;1.10;;
77864;SDS011;67061;48.524;9.040;2023-07-29T13:22:19;2.08;;;0.98;;
77864;SDS011;67061;48.524;9.040;2023-07-29T13:24:46;2.67;;;1.08;;
77864;SDS011;67061;48.524;9.040;2023-07-29T13:27:13;2.08;;;1.30;;
77864;SDS011;67061;48.524;9.040;2023-07-29T13:29:40;2.40;;;1.05;;
77864;SDS011;67061;48.524;9.040;2023-07-29T13:34:36;2.17;;;1.35;;
77864;SDS011;67061;48.524;9.040;2023-07-29T13:37:05;5.18;;;1.02;;
77864;SDS011;67061;48.524;9.040;2023-07-29T13:39:32;2.65;;;1.08;;
77864;SDS011;67061;48.524;9.040;2023-07-29T13:41:59;2.10;;;0.82;;
77864;SDS011;67061;48.524;9.040;2023-07-29T13:44:26;2.33;;;1.02;;
77864;SDS011;67061;48.524;9.040;2023-07-29T13:46:53;2.40;;;1.17;;
77864;SDS011;67061;48.524;9.040;2023-07-29T13:49:21;2.28;;;1.00;;
77864;SDS011;67061;48.524;9.040;2023-07-29T13:51:48;2.28;;;1.05;;
77864;SDS011;67061;48.524;9.040;2023-07-29T13:54:15;2.88;;;1.20;;
77864;SDS011;67061;48.524;9.040;2023-07-29T13:56:41;2.65;;;1.13;;
77864;SDS011;67061;48.524;9.040;2023-07-29T13:59:08;2.10;;;1.10;;
77864;SDS011;67061;48.524;9.040;2023-07-29T14:01:35;2.10;;;1.00;;
77864;SDS011;67061;48.524;9.040;2023-07-29T14:04:02;2.60;;;1.10;;
77864;SDS011;67061;48.524;9.040;2023-07-29T14:06:30;2.33;;;1.20;;
77864;SDS011;67061;48.524;9.040;2023-07-29T14:08:58;2.30;;;1.10;;
77864;SDS011;67061;48.524;9.040;2023-07-29T14:11:25;2.38;;;0.93;;
77864;SDS011;67061;48.524;9.040;2023-07-29T14:13:52;2.65;;;1.08;;
77864;SDS011;67061;48.524;9.040;2023-07-29T14:16:19;2.20;;;1.13;;
77864;SDS011;67061;48.524;9.040;2023-07-29T14:18:45;2.40;;;1.15;;
77864;SDS011;67061;48.524;9.040;2023-07-29T14:21:12;1.92;;;0.80;;
77864;SDS011;67061;48.524;9.040;2023-07-29T14:23:41;2.25;;;1.30;;
77864;SDS011;67061;48.524;9.040;2023-07-29T14:28:35;2.92;;;1.10;;
77864;SDS011;67061;48.524;9.040;2023-07-29T14:31:02;2.00;;;0.90;;
77864;SDS011;67061;48.524;9.040;2023-07-29T14:33:29;2.30;;;1.17;;
77864;SDS011;67061;48.524;9.040;2023-07-29T14:35:56;2.45;;;0.98;;
77864;SDS011;67061;48.524;9.040;2023-07-29T14:38:23;2.25;;;1.23;;
77864;SDS011;67061;48.524;9.040;2023-07-29T14:40:52;2.00;;;1.10;;
77864;SDS011;67061;48.524;9.040;2023-07-29T14:43:21;2.88;;;0.90;;
77864;SDS011;67061;48.524;9.040;2023-07-29T14:45:48;2.42;;;1.02;;
77864;SDS011;67061;48.524;9.040;2023-07-29T14:48:15;1.90;;;1.00;;
77864;SDS011;67061;48.524;9.040;2023-07-29T14:50:42;2.22;;;1.05;;
77864;SDS011;67061;48.524;9.040;2023-07-29T14:53:09;2.30;;;1.10;;
77864;SDS011;67061;48.524;9.040;2023-07-29T14:55:36;2.90;;;1.65;;
77864;SDS011;67061;48.524;9.040;2023-07-29T14:58:05;2.08;;;1.10;;
77864;SDS011;67061;48.524;9.040;2023-07-29T15:02:58;2.33;;;1.10;;
77864;SDS011;67061;48.524;9.040;2023-07-29T15:05:25;2.22;;;1.17;;
77864;SDS011;67061;48.524;9.040;2023-07-29T15:07:52;2.00;;;1.05;;
77864;SDS011;67061;48.524;9.040;2023-07-29T15:10:19;2.95;;;1.00;;
77864;SDS011;67061;48.524;9.040;2023-07-29T15:12:46;2.38;;;1.25;;